Time;durP1;ratioP1;P1;durP2;ratioP2;P2;SDS_P1;SDS_P2;PMS_P1;PMS_P2;Temp;Humidity;BMP_temperature;BMP_pressure;BME280_temperature;BME280_humidity;BME280_pressure;Samples;Min_cycle;Max_cycle;Signal;HPM_P1;HPM_P2
2021/09/21 00:00:50;;;;;;;3.35;2.13;;;10.40;99.90;;;;;;5037586;28;20071;-83
2021/09/21 00:03:18;;;;;;;5.65;2.10;;;10.40;99.90;;;;;;5021135;28;20381;-83
2021/09/21 00:05:45;;;;;;;3.65;2.08;;;10.30;99.90;;;;;;5050118;28;20037;-83
2021/09/21 00:08:11;;;;;;;3.03;1.92;;;10.30;99.90;;;;;;5027224;28;20178;-83
2021/09/21 00:10:36;;;;;;;4.30;2.05;;;10.30;99.90;;;;;;5037259;28;20480;-83
2021/09/21 00:13:02;;;;;;;2.75;1.75;;;10.20;99.90;;;;;;5021123;28;20390;-83
2021/09/21 00:15:30;;;;;;;2.83;1.90;;;10.20;99.90;;;;;;5029764;28;20060;-83
2021/09/21 00:17:56;;;;;;;5.18;1.92;;;10.20;99.90;;;;;;5005167;28;20033;-83
2021/09/21 00:20:23;;;;;;;2.55;1.67;;;10.10;99.90;;;;;;5033877;28;20100;-83
2021/09/21 00:22:49;;;;;;;3.25;1.70;;;10.10;99.90;;;;;;5019537;28;20356;-83
2021/09/21 00:25:16;;;;;;;2.70;1.65;;;10.10;99.90;;;;;;5033718;28;20025;-83
2021/09/21 00:27:43;;;;;;;2.97;1.80;;;10.10;99.90;;;;;;5028131;28;20088;-83
2021/09/21 00:30:11;;;;;;;2.97;1.77;;;10.10;99.90;;;;;;5023399;28;20029;-83
2021/09/21 00:32:37;;;;;;;3.28;2.00;;;10.10;99.90;;;;;;5021896;28;20029;-83
2021/09/21 00:35:04;;;;;;;3.63;2.28;;;10.10;99.90;;;;;;5030544;28;20022;-83
2021/09/21 00:37:30;;;;;;;2.95;1.98;;;10.20;99.90;;;;;;5018515;28;20458;-83
2021/09/21 00:39:56;;;;;;;3.60;2.42;;;10.20;99.90;;;;;;5009883;28;20233;-84
2021/09/21 00:42:31;;;;;;;2.90;2.08;;;10.20;99.90;;;;;;5024508;28;20091;-83
2021/09/21 00:45:00;;;;;;;3.17;2.05;;;10.20;99.90;;;;;;5018004;28;20470;-82
2021/09/21 00:47:27;;;;;;;3.35;2.10;;;10.20;99.90;;;;;;5033374;28;20125;-84
2021/09/21 00:49:53;;;;;;;4.63;2.45;;;10.20;99.90;;;;;;5025757;28;20026;-83
2021/09/21 00:52:19;;;;;;;4.22;2.38;;;10.20;99.90;;;;;;5023802;28;20057;-83
2021/09/21 00:54:46;;;;;;;3.78;1.85;;;10.20;99.90;;;;;;5019642;28;20047;-83
2021/09/21 00:57:13;;;;;;;2.92;1.98;;;10.20;99.90;;;;;;5030822;28;20030;-82
2021/09/21 00:59:39;;;;;;;4.05;2.40;;;10.10;99.90;;;;;;5002306;28;20440;-83
2021/09/21 01:02:06;;;;;;;4.45;2.53;;;10.10;99.90;;;;;;5033163;28;20030;-83
2021/09/21 01:04:34;;;;;;;3.50;2.20;;;10.00;99.90;;;;;;5020945;28;20441;-83
2021/09/21 01:07:00;;;;;;;3.08;2.08;;;10.00;99.90;;;;;;5029468;28;20075;-83
2021/09/21 01:09:28;;;;;;;2.88;2.05;;;9.90;99.90;;;;;;5000403;28;20029;-83
2021/09/21 01:12:00;;;;;;;4.65;2.40;;;9.90;99.90;;;;;;5033768;28;20373;-83
2021/09/21 01:14:26;;;;;;;3.08;2.10;;;9.90;99.90;;;;;;5024178;28;20527;-82
2021/09/21 01:16:53;;;;;;;3.00;2.25;;;9.90;99.90;;;;;;5031713;28;20115;-83
2021/09/21 01:19:20;;;;;;;3.90;2.50;;;9.90;99.90;;;;;;5019648;28;20021;-83
2021/09/21 01:21:48;;;;;;;4.07;2.40;;;9.90;99.90;;;;;;5030244;28;20022;-84
2021/09/21 01:24:16;;;;;;;4.78;2.20;;;9.90;99.90;;;;;;5026515;28;20358;-83
2021/09/21 01:26:42;;;;;;;3.55;2.13;;;9.90;99.90;;;;;;5022485;28;20034;-83
2021/09/21 01:29:08;;;;;;;4.50;2.50;;;9.90;99.90;;;;;;5032733;28;20104;-83
2021/09/21 01:31:35;;;;;;;4.47;2.50;;;9.80;99.90;;;;;;5004549;28;20385;-83
2021/09/21 01:34:01;;;;;;;3.90;2.28;;;9.80;99.90;;;;;;5036113;28;20021;-83
2021/09/21 01:36:29;;;;;;;4.43;2.22;;;9.80;99.90;;;;;;5024270;28;20097;-83
2021/09/21 01:38:56;;;;;;;3.90;2.47;;;9.80;99.90;;;;;;5031531;28;20036;-83
2021/09/21 01:41:22;;;;;;;4.30;2.53;;;9.70;99.90;;;;;;5019374;28;20036;-83
2021/09/21 01:43:49;;;;;;;4.45;2.70;;;9.70;99.90;;;;;;5029833;28;20124;-83
2021/09/21 01:46:18;;;;;;;4.57;2.20;;;9.70;99.90;;;;;;5026352;28;20035;-84
2021/09/21 01:48:45;;;;;;;4.40;2.63;;;9.70;99.90;;;;;;5021999;28;20025;-84
2021/09/21 01:51:18;;;;;;;4.70;2.60;;;9.60;99.90;;;;;;5032329;28;20052;-83
2021/09/21 01:59:15;;;;;;;4.25;2.25;;;9.50;99.90;;;;;;5036957;28;19955;-83
2021/09/21 02:01:43;;;;;;;4.93;2.70;;;9.50;99.90;;;;;;5035081;28;20025;-83
2021/09/21 02:04:10;;;;;;;3.25;2.28;;;9.50;99.90;;;;;;5009956;28;20044;-83
2021/09/21 02:06:41;;;;;;;4.03;2.53;;;9.50;99.90;;;;;;5028276;28;20056;-83
2021/09/21 02:09:09;;;;;;;4.30;2.60;;;9.40;99.90;;;;;;5019068;28;20079;-83
2021/09/21 02:11:36;;;;;;;4.70;2.78;;;9.40;99.90;;;;;;5014587;28;20030;-83
2021/09/21 02:14:11;;;;;;;4.50;2.80;;;9.50;99.90;;;;;;5042523;28;20017;-83
2021/09/21 02:16:37;;;;;;;3.72;2.53;;;9.40;99.90;;;;;;5040096;28;20065;-84
2021/09/21 02:19:03;;;;;;;3.97;2.70;;;9.40;99.90;;;;;;5032131;28;20056;-83
2021/09/21 02:21:29;;;;;;;5.22;2.63;;;9.40;99.90;;;;;;5019353;28;20039;-83
2021/09/21 02:23:57;;;;;;;4.13;2.00;;;9.40;99.90;;;;;;5028154;28;20036;-83
2021/09/21 02:26:24;;;;;;;3.55;2.35;;;9.40;99.90;;;;;;5026802;28;20500;-83
2021/09/21 02:28:50;;;;;;;3.47;2.42;;;9.40;99.90;;;;;;5035193;28;20112;-83
2021/09/21 02:31:16;;;;;;;4.53;2.58;;;9.40;99.90;;;;;;5018873;28;20442;-84
2021/09/21 02:33:42;;;;;;;4.13;2.10;;;9.40;99.90;;;;;;5029930;28;20026;-84
2021/09/21 02:36:08;;;;;;;4.22;2.40;;;9.40;99.90;;;;;;5041929;28;20033;-84
2021/09/21 02:38:35;;;;;;;5.25;2.55;;;9.40;99.90;;;;;;5035425;28;20440;-82
2021/09/21 02:41:02;;;;;;;4.80;3.03;;;9.40;99.90;;;;;;5018686;28;20029;-83
2021/09/21 02:43:29;;;;;;;5.10;2.90;;;9.40;99.90;;;;;;5015853;28;20033;-83
2021/09/21 02:45:59;;;;;;;3.33;2.33;;;9.50;99.90;;;;;;5040355;28;20025;-82
2021/09/21 02:48:24;;;;;;;4.50;2.75;;;9.50;99.90;;;;;;5023904;28;20026;-82
2021/09/21 02:50:50;;;;;;;5.00;3.05;;;9.50;99.90;;;;;;5048048;28;20483;-82
2021/09/21 02:53:17;;;;;;;5.45;3.10;;;9.50;99.90;;;;;;5033053;28;20033;-83
2021/09/21 02:55:43;;;;;;;4.05;2.72;;;9.50;99.90;;;;;;5020954;28;20108;-83
2021/09/21 02:58:10;;;;;;;3.35;2.28;;;9.50;99.90;;;;;;5044072;28;20091;-82
2021/09/21 03:00:38;;;;;;;4.63;2.85;;;9.50;99.90;;;;;;5027252;28;20040;-83
2021/09/21 03:03:05;;;;;;;4.30;2.53;;;9.40;99.90;;;;;;5034802;28;20056;-82
2021/09/21 03:05:36;;;;;;;5.90;3.00;;;9.40;99.90;;;;;;5019032;28;20025;-82
2021/09/21 03:08:09;;;;;;;7.10;2.97;;;9.40;99.90;;;;;;5011334;28;20026;-82
2021/09/21 03:10:51;;;;;;;4.70;2.70;;;9.40;99.90;;;;;;5045513;28;20075;-82
2021/09/21 03:18:45;;;;;;;4.40;2.72;;;9.20;99.90;;;;;;5050936;28;20031;-83
2021/09/21 03:21:11;;;;;;;4.10;2.70;;;9.10;99.90;;;;;;5039696;28;20112;-82
2021/09/21 03:23:36;;;;;;;5.35;2.72;;;9.10;99.90;;;;;;5033840;28;20029;-83
2021/09/21 03:26:02;;;;;;;3.60;2.30;;;9.10;99.90;;;;;;5044985;28;20021;-83
2021/09/21 03:28:29;;;;;;;3.38;2.00;;;9.10;99.90;;;;;;5056521;28;20090;-82
2021/09/21 03:30:57;;;;;;;4.28;2.50;;;9.10;99.90;;;;;;5023265;28;20026;-83
2021/09/21 03:33:23;;;;;;;4.13;2.80;;;9.00;99.90;;;;;;5034747;28;20097;-83
2021/09/21 03:35:49;;;;;;;4.40;2.72;;;9.00;99.90;;;;;;5025203;28;20048;-83
2021/09/21 03:38:15;;;;;;;4.22;2.50;;;9.00;99.90;;;;;;5038256;28;20028;-83
2021/09/21 03:40:44;;;;;;;5.18;2.75;;;8.90;99.90;;;;;;5024631;28;20417;-83
2021/09/21 03:43:10;;;;;;;4.50;2.67;;;8.90;99.90;;;;;;5034719;28;20033;-83
2021/09/21 03:45:36;;;;;;;4.95;2.63;;;8.80;99.90;;;;;;5023123;28;20032;-84
2021/09/21 03:48:03;;;;;;;6.68;2.95;;;8.80;99.90;;;;;;5038394;28;20049;-83
2021/09/21 03:50:29;;;;;;;4.38;2.58;;;8.80;99.90;;;;;;5009983;28;20119;-84
2021/09/21 03:52:56;;;;;;;4.38;2.72;;;8.80;99.90;;;;;;5033550;28;20032;-84
2021/09/21 03:55:23;;;;;;;6.75;2.80;;;8.80;99.90;;;;;;5021403;28;20030;-84
2021/09/21 03:57:49;;;;;;;4.28;2.60;;;8.80;99.90;;;;;;5031638;28;20481;-83
2021/09/21 04:00:15;;;;;;;3.58;2.35;;;8.70;99.90;;;;;;5027632;28;20052;-84
2021/09/21 04:02:41;;;;;;;3.67;2.47;;;8.80;99.90;;;;;;5037726;28;20507;-83
2021/09/21 04:05:07;;;;;;;4.70;2.70;;;8.80;99.90;;;;;;5039303;28;20025;-83
2021/09/21 04:07:33;;;;;;;4.32;2.85;;;8.70;99.90;;;;;;5032765;28;20025;-83
2021/09/21 04:09:59;;;;;;;3.85;2.75;;;8.70;99.90;;;;;;5025485;28;20087;-83
2021/09/21 04:12:25;;;;;;;3.90;2.47;;;8.80;99.90;;;;;;5026420;28;20056;-84
2021/09/21 04:14:51;;;;;;;4.00;2.42;;;8.80;99.90;;;;;;5029003;28;20053;-84
2021/09/21 04:17:18;;;;;;;4.18;2.65;;;8.80;99.90;;;;;;5033079;28;20108;-83
2021/09/21 04:19:43;;;;;;;3.35;2.30;;;8.80;99.90;;;;;;5020159;28;20057;-83
2021/09/21 04:22:09;;;;;;;4.03;2.60;;;8.80;99.90;;;;;;5024707;28;20049;-83
2021/09/21 04:24:37;;;;;;;6.90;2.67;;;8.80;99.90;;;;;;5027074;28;20063;-82
2021/09/21 04:27:03;;;;;;;4.65;3.25;;;8.80;99.90;;;;;;5017753;28;20397;-83
2021/09/21 04:29:29;;;;;;;3.97;2.67;;;8.80;99.90;;;;;;5030108;28;20057;-83
2021/09/21 04:32:00;;;;;;;4.07;2.78;;;8.80;99.90;;;;;;5021366;28;20128;-83
2021/09/21 04:34:26;;;;;;;5.25;2.78;;;8.70;99.90;;;;;;5023797;28;20103;-82
2021/09/21 04:36:52;;;;;;;4.85;2.85;;;8.70;99.90;;;;;;5015613;28;20021;-83
2021/09/21 04:39:18;;;;;;;4.38;2.97;;;8.70;99.90;;;;;;5019720;28;20028;-83
2021/09/21 04:41:45;;;;;;;5.30;3.15;;;8.80;99.90;;;;;;5000466;28;20033;-83
2021/09/21 04:44:15;;;;;;;4.57;3.25;;;8.90;99.90;;;;;;5026064;28;20059;-84
2021/09/21 04:46:43;;;;;;;5.18;3.15;;;8.90;99.90;;;;;;5007894;28;20040;-83
2021/09/21 04:49:11;;;;;;;5.88;3.30;;;9.00;99.90;;;;;;5023992;28;20029;-83
2021/09/21 04:51:38;;;;;;;5.82;3.40;;;9.10;99.90;;;;;;5026169;28;20036;-83
2021/09/21 04:54:05;;;;;;;3.90;2.63;;;9.10;99.90;;;;;;5026434;28;20033;-83
2021/09/21 04:56:32;;;;;;;4.28;2.70;;;9.20;99.90;;;;;;5025252;28;20029;-83
2021/09/21 04:59:00;;;;;;;5.03;3.00;;;9.30;99.90;;;;;;5017589;28;20075;-83
2021/09/21 05:01:29;;;;;;;4.85;3.25;;;9.40;99.90;;;;;;5020731;28;20021;-83
2021/09/21 05:03:57;;;;;;;6.85;3.35;;;9.40;99.90;;;;;;5016049;28;20042;-83
2021/09/21 05:06:23;;;;;;;6.55;3.40;;;9.50;99.90;;;;;;5016780;28;20022;-84
2021/09/21 05:08:49;;;;;;;5.10;3.40;;;9.50;99.90;;;;;;5018806;28;20128;-83
2021/09/21 05:11:15;;;;;;;5.07;3.13;;;9.50;99.90;;;;;;5017401;28;20025;-83
2021/09/21 05:13:44;;;;;;;4.60;3.03;;;9.60;99.90;;;;;;5016058;28;20030;-84
2021/09/21 05:16:11;;;;;;;5.53;3.50;;;9.60;99.90;;;;;;5015566;28;20089;-83
2021/09/21 05:18:37;;;;;;;7.03;3.47;;;9.70;99.90;;;;;;5017342;28;20496;-83
2021/09/21 05:21:09;;;;;;;8.20;3.83;;;9.70;99.90;;;;;;5018364;28;20064;-83
2021/09/21 05:23:39;;;;;;;5.80;3.90;;;9.70;99.90;;;;;;5018769;28;20044;-83
2021/09/21 05:26:07;;;;;;;8.32;3.72;;;9.70;99.90;;;;;;5020885;28;20038;-83
2021/09/21 05:28:33;;;;;;;6.63;3.05;;;9.80;99.90;;;;;;5001293;28;20033;-84
2021/09/21 05:31:00;;;;;;;6.68;3.50;;;9.90;99.90;;;;;;5005563;28;20030;-85
2021/09/21 05:33:28;;;;;;;5.75;3.33;;;9.90;99.90;;;;;;5025270;28;20112;-83
2021/09/21 05:35:54;;;;;;;5.22;3.20;;;9.90;99.90;;;;;;5002587;28;20037;-84
2021/09/21 05:38:19;;;;;;;5.53;3.50;;;10.00;99.90;;;;;;5022468;28;20027;-83
2021/09/21 05:41:08;;;;;;;5.60;3.30;;;10.00;99.90;;;;;;5007611;28;20176;-86
2021/09/21 05:43:35;;;;;;;5.72;3.35;;;10.10;99.90;;;;;;5019019;28;20048;-85
2021/09/21 05:46:02;;;;;;;7.97;3.92;;;10.10;99.90;;;;;;5017122;28;20025;-84
2021/09/21 05:48:28;;;;;;;7.47;3.22;;;10.20;99.90;;;;;;5024506;28;20026;-84
2021/09/21 05:50:54;;;;;;;7.18;3.38;;;10.20;99.90;;;;;;5024557;28;20034;-82
2021/09/21 05:53:20;;;;;;;5.43;3.35;;;10.20;99.90;;;;;;5017473;28;20392;-84
2021/09/21 05:55:46;;;;;;;4.90;3.00;;;10.30;99.90;;;;;;5015094;28;20113;-84
2021/09/21 05:58:13;;;;;;;7.03;3.65;;;10.40;99.90;;;;;;5022120;28;20109;-84
2021/09/21 06:00:40;;;;;;;8.75;3.40;;;10.40;99.90;;;;;;5013042;28;20072;-84
2021/09/21 06:03:06;;;;;;;7.53;3.63;;;10.50;99.90;;;;;;5014501;28;20109;-85
2021/09/21 06:05:33;;;;;;;6.18;3.53;;;10.50;99.90;;;;;;5026377;28;20117;-85
2021/09/21 06:08:00;;;;;;;8.18;3.45;;;10.60;99.90;;;;;;5018736;28;20065;-85
2021/09/21 06:10:28;;;;;;;5.82;3.22;;;10.60;99.90;;;;;;5030904;28;20168;-85
2021/09/21 06:12:54;;;;;;;6.55;3.40;;;10.60;99.90;;;;;;5032258;28;20033;-84
2021/09/21 06:15:20;;;;;;;5.10;3.25;;;10.70;99.90;;;;;;5027272;28;20060;-84
2021/09/21 06:17:49;;;;;;;5.97;3.50;;;10.70;99.90;;;;;;5013404;28;20517;-85
2021/09/21 06:20:17;;;;;;;5.95;3.30;;;10.80;99.90;;;;;;4996281;28;20026;-84
2021/09/21 06:22:46;;;;;;;8.00;3.28;;;10.80;99.90;;;;;;5012371;28;20030;-84
2021/09/21 06:25:16;;;;;;;6.35;3.63;;;10.90;99.90;;;;;;5012561;28;20040;-84
2021/09/21 06:27:44;;;;;;;9.05;3.78;;;11.00;99.90;;;;;;5027334;28;20022;-84
2021/09/21 06:30:14;;;;;;;6.20;3.67;;;11.10;99.90;;;;;;5026389;28;20032;-84
2021/09/21 06:32:41;;;;;;;6.40;3.80;;;11.10;99.90;;;;;;5030597;28;20025;-84
2021/09/21 06:35:09;;;;;;;5.38;3.95;;;11.20;99.90;;;;;;5030903;28;20025;-84
2021/09/21 06:37:37;;;;;;;5.72;3.33;;;11.30;99.90;;;;;;5012171;28;20025;-84
2021/09/21 06:40:05;;;;;;;6.72;3.83;;;11.40;99.90;;;;;;5012400;28;20029;-85
2021/09/21 06:42:33;;;;;;;7.43;3.80;;;11.40;99.90;;;;;;5012646;28;20079;-85
2021/09/21 06:44:59;;;;;;;5.88;3.72;;;11.50;99.90;;;;;;5013499;28;20156;-85
2021/09/21 06:47:26;;;;;;;5.50;3.67;;;11.50;99.90;;;;;;5028905;28;20022;-85
2021/09/21 06:49:52;;;;;;;6.00;3.13;;;11.60;99.90;;;;;;5033039;28;20025;-85
2021/09/21 06:52:18;;;;;;;7.28;4.57;;;11.70;99.90;;;;;;5017675;28;20032;-84
2021/09/21 06:54:44;;;;;;;8.10;3.75;;;11.70;99.90;;;;;;5033811;28;20380;-84
2021/09/21 06:57:14;;;;;;;8.90;4.60;;;11.80;99.90;;;;;;5018587;28;20446;-84
2021/09/21 06:59:43;;;;;;;6.65;4.00;;;11.90;99.90;;;;;;5015977;28;20032;-84
2021/09/21 07:02:10;;;;;;;7.40;3.50;;;11.90;99.90;;;;;;5016194;28;20121;-84
2021/09/21 07:04:38;;;;;;;8.55;4.45;;;12.00;99.90;;;;;;5016314;28;20038;-85
2021/09/21 07:07:03;;;;;;;6.93;4.20;;;12.00;99.90;;;;;;5031101;28;20034;-84
2021/09/21 07:09:32;;;;;;;7.10;3.45;;;12.10;99.90;;;;;;5032962;28;20458;-85
2021/09/21 07:12:01;;;;;;;5.47;3.35;;;12.20;99.90;;;;;;5033973;28;20061;-84
2021/09/21 07:14:27;;;;;;;6.30;3.70;;;12.30;99.90;;;;;;5012613;28;20125;-84
2021/09/21 07:16:55;;;;;;;6.07;3.40;;;12.40;99.90;;;;;;5023755;28;20025;-85
2021/09/21 07:19:22;;;;;;;5.43;3.80;;;12.40;99.90;;;;;;5018881;28;20033;-84
2021/09/21 07:21:48;;;;;;;5.78;3.90;;;12.50;99.90;;;;;;5034927;28;20112;-85
2021/09/21 07:24:16;;;;;;;8.02;4.20;;;12.50;99.90;;;;;;5027016;28;20075;-84
2021/09/21 07:26:46;;;;;;;7.43;4.22;;;12.70;99.90;;;;;;5041640;28;20025;-85
2021/09/21 07:29:12;;;;;;;7.88;4.35;;;12.70;99.90;;;;;;5034098;28;20075;-84
2021/09/21 07:31:38;;;;;;;5.15;3.90;;;12.70;99.90;;;;;;5020469;28;20033;-84
2021/09/21 07:34:08;;;;;;;6.55;4.07;;;12.80;99.90;;;;;;5037046;28;20021;-85
2021/09/21 07:36:36;;;;;;;5.47;3.92;;;12.80;99.90;;;;;;5025331;28;20527;-84
2021/09/21 07:39:03;;;;;;;6.95;3.60;;;13.00;99.90;;;;;;5002437;28;20037;-83
2021/09/21 07:41:29;;;;;;;6.82;4.10;;;13.00;99.90;;;;;;5033844;28;20433;-84
2021/09/21 07:43:56;;;;;;;5.75;3.78;;;13.00;99.90;;;;;;5025322;28;20369;-84
2021/09/21 07:46:24;;;;;;;6.35;3.25;;;13.10;99.90;;;;;;5026969;28;20017;-84
2021/09/21 07:48:51;;;;;;;7.13;4.53;;;13.10;99.90;;;;;;5018533;28;20484;-84
2021/09/21 07:51:19;;;;;;;6.03;4.30;;;13.10;99.90;;;;;;5035044;28;20029;-84
2021/09/21 07:53:45;;;;;;;6.55;4.15;;;13.10;99.90;;;;;;5036505;28;20597;-84
2021/09/21 07:56:12;;;;;;;6.00;4.00;;;13.10;99.90;;;;;;5027881;28;20033;-84
2021/09/21 07:58:38;;;;;;;5.97;4.20;;;13.20;99.90;;;;;;5018299;28;20017;-85
2021/09/21 08:01:08;;;;;;;6.32;4.25;;;13.30;99.90;;;;;;5017692;28;20473;-85
2021/09/21 08:03:38;;;;;;;5.40;3.78;;;13.30;99.90;;;;;;5021753;28;20025;-84
2021/09/21 08:06:03;;;;;;;7.00;4.55;;;13.40;99.90;;;;;;5028848;28;20028;-84
2021/09/21 08:08:31;;;;;;;6.85;4.90;;;13.40;99.90;;;;;;5018443;28;20037;-84
2021/09/21 08:11:01;;;;;;;6.53;4.53;;;13.50;99.90;;;;;;5018281;28;20389;-85
2021/09/21 08:13:30;;;;;;;6.38;4.18;;;13.50;99.90;;;;;;5036018;28;20056;-84
2021/09/21 08:15:57;;;;;;;6.25;3.70;;;13.60;99.90;;;;;;5023778;28;20056;-83
2021/09/21 08:18:23;;;;;;;5.47;3.78;;;13.80;99.90;;;;;;4998691;28;20023;-84
2021/09/21 08:20:52;;;;;;;4.90;3.60;;;13.90;99.90;;;;;;5027978;28;20036;-84
2021/09/21 08:23:18;;;;;;;6.28;4.13;;;14.00;99.90;;;;;;5015642;28;20091;-84
2021/09/21 08:25:47;;;;;;;5.30;3.40;;;14.20;99.90;;;;;;5004479;28;20029;-84
2021/09/21 08:28:13;;;;;;;5.55;3.88;;;14.30;99.90;;;;;;5015413;28;20087;-83
2021/09/21 08:30:40;;;;;;;4.88;3.53;;;14.50;99.90;;;;;;5026859;28;20049;-84
2021/09/21 08:33:06;;;;;;;5.90;3.42;;;14.70;99.90;;;;;;5032057;28;20029;-84
2021/09/21 08:35:33;;;;;;;4.97;3.17;;;14.90;99.90;;;;;;5028619;28;20370;-85
2021/09/21 08:37:58;;;;;;;4.47;3.00;;;15.10;99.90;;;;;;5022080;28;20117;-85
2021/09/21 08:40:25;;;;;;;5.28;2.95;;;15.30;99.90;;;;;;5032420;28;20440;-85
2021/09/21 08:42:52;;;;;;;5.05;2.80;;;15.50;99.90;;;;;;5032489;28;20117;-84
2021/09/21 08:45:19;;;;;;;5.00;3.25;;;15.60;99.90;;;;;;5030921;28;20501;-84
2021/09/21 08:47:47;;;;;;;5.13;3.10;;;15.80;99.90;;;;;;5014807;28;20383;-84
2021/09/21 08:50:14;;;;;;;3.88;2.50;;;16.00;99.90;;;;;;5014297;28;20014;-85
2021/09/21 08:52:40;;;;;;;3.70;1.83;;;16.10;99.90;;;;;;5015304;28;20097;-84
2021/09/21 08:55:10;;;;;;;4.38;2.33;;;16.20;99.90;;;;;;5014850;28;20540;-85
2021/09/21 08:57:38;;;;;;;4.68;1.92;;;16.30;99.90;;;;;;5013777;28;20036;-85
2021/09/21 09:00:06;;;;;;;3.80;2.08;;;16.40;99.90;;;;;;5014024;28;20019;-85
2021/09/21 09:02:39;;;;;;;3.30;1.90;;;16.50;99.90;;;;;;5025175;28;20474;-85
2021/09/21 09:05:09;;;;;;;2.90;1.58;;;16.70;99.90;;;;;;5031587;28;20025;-85
2021/09/21 09:07:47;;;;;;;2.65;1.40;;;16.70;99.90;;;;;;5013472;28;20112;-85
2021/09/21 09:10:13;;;;;;;2.05;1.15;;;16.90;99.90;;;;;;5014899;28;20079;-85
2021/09/21 09:12:41;;;;;;;2.17;1.30;;;16.90;99.90;;;;;;5014247;28;20025;-86
2021/09/21 09:15:21;;;;;;;2.40;1.50;;;17.10;99.90;;;;;;5015420;28;20406;-85
2021/09/21 09:17:59;;;;;;;3.10;1.60;;;17.30;99.90;;;;;;5016871;28;20129;-85
2021/09/21 09:20:39;;;;;;;2.35;1.30;;;17.40;99.90;;;;;;5027326;28;20442;-85
2021/09/21 09:23:08;;;;;;;2.83;1.23;;;17.60;99.90;;;;;;5034454;28;20043;-85
2021/09/21 09:25:45;;;;;;;2.75;1.30;;;17.70;99.90;;;;;;5022677;28;20355;-86
2021/09/21 09:28:23;;;;;;;1.63;1.08;;;17.90;99.90;;;;;;5016778;28;20069;-86
2021/09/21 09:30:50;;;;;;;3.30;1.20;;;18.10;99.90;;;;;;5045999;28;20064;-86
2021/09/21 09:33:17;;;;;;;1.90;1.30;;;18.30;99.90;;;;;;5051594;28;20103;-85
2021/09/21 09:35:46;;;;;;;2.70;1.15;;;18.40;99.90;;;;;;5029762;28;20010;-85
2021/09/21 09:38:14;;;;;;;2.67;1.55;;;18.80;99.90;;;;;;5016219;28;20076;-86
2021/09/21 09:40:42;;;;;;;3.05;1.25;;;19.30;99.20;;;;;;5016505;28;20029;-86
2021/09/21 09:43:09;;;;;;;2.40;1.25;;;20.00;98.50;;;;;;5017238;28;20037;-86
2021/09/21 09:45:40;;;;;;;2.08;1.50;;;20.60;98.00;;;;;;5027717;28;20027;-86
2021/09/21 09:48:07;;;;;;;4.28;1.40;;;21.40;97.20;;;;;;5034811;28;20021;-86
2021/09/21 09:50:42;;;;;;;2.65;1.50;;;22.00;96.20;;;;;;5034706;28;20025;-86
2021/09/21 09:53:16;;;;;;;2.42;1.15;;;22.50;95.20;;;;;;5033927;28;20025;-86
2021/09/21 09:55:56;;;;;;;2.25;1.13;;;22.70;93.90;;;;;;5019826;28;20049;-86
2021/09/21 09:58:28;;;;;;;2.35;1.40;;;22.90;93.30;;;;;;5008525;28;20026;-87
2021/09/21 10:01:00;;;;;;;2.72;1.50;;;23.10;92.60;;;;;;4996977;28;20124;-87
2021/09/21 10:03:41;;;;;;;2.30;1.30;;;23.20;92.20;;;;;;5029631;28;20120;-86
2021/09/21 10:06:10;;;;;;;2.33;1.30;;;23.50;91.90;;;;;;5008279;28;20087;-86
2021/09/21 10:08:41;;;;;;;1.75;1.13;;;23.80;91.20;;;;;;5013581;28;20030;-85
2021/09/21 10:11:08;;;;;;;2.95;1.48;;;24.20;90.80;;;;;;5029701;28;20112;-85
2021/09/21 10:13:35;;;;;;;2.63;1.02;;;24.30;88.10;;;;;;5017044;28;20503;-85
2021/09/21 10:16:01;;;;;;;2.85;1.17;;;24.50;86.90;;;;;;5020347;28;20050;-85
2021/09/21 10:18:27;;;;;;;2.42;1.20;;;24.50;85.20;;;;;;5009828;28;20032;-86
2021/09/21 10:20:58;;;;;;;3.75;1.33;;;24.60;83.90;;;;;;5017052;28;20018;-86
2021/09/21 10:23:37;;;;;;;1.40;0.90;;;24.60;83.20;;;;;;5015575;28;20034;-85
2021/09/21 10:26:23;;;;;;;1.98;1.00;;;24.80;82.50;;;;;;5005977;28;20087;-86
2021/09/21 10:28:52;;;;;;;2.13;1.40;;;25.00;81.60;;;;;;5011448;28;20084;-86
2021/09/21 10:31:22;;;;;;;1.70;1.10;;;25.30;79.90;;;;;;5011249;28;20034;-84
2021/09/21 10:33:49;;;;;;;3.88;1.52;;;25.50;78.90;;;;;;5011802;28;20088;-84
2021/09/21 10:36:18;;;;;;;2.45;1.45;;;25.80;76.20;;;;;;5018462;28;20469;-84
2021/09/21 10:39:12;;;;;;;3.78;1.50;;;26.10;75.60;;;;;;5028155;28;20034;-84
2021/09/21 10:41:59;;;;;;;2.83;1.55;;;26.60;74.80;;;;;;5025884;28;20033;-85
2021/09/21 10:44:33;;;;;;;2.28;1.65;;;27.00;73.20;;;;;;5028652;28;20485;-84
2021/09/21 10:47:06;;;;;;;2.20;1.00;;;26.60;71.50;;;;;;5025989;28;20044;-84
2021/09/21 10:49:44;;;;;;;2.35;1.58;;;26.60;71.50;;;;;;5026007;28;20378;-84
2021/09/21 10:52:20;;;;;;;2.72;1.65;;;26.70;71.20;;;;;;5014415;28;20025;-83
2021/09/21 10:55:03;;;;;;;2.13;1.42;;;26.80;70.80;;;;;;4994969;28;20030;-85
2021/09/21 10:57:40;;;;;;;3.42;1.88;;;27.00;70.80;;;;;;5027068;28;20819;-85
2021/09/21 11:00:16;;;;;;;2.13;1.35;;;27.10;70.00;;;;;;5020459;28;20116;-85
2021/09/21 11:02:53;;;;;;;2.28;1.48;;;27.30;69.10;;;;;;5025528;28;20037;-85
2021/09/21 11:05:26;;;;;;;2.03;1.40;;;27.60;67.50;;;;;;5028701;28;20409;-86
2021/09/21 11:08:00;;;;;;;2.38;1.23;;;27.70;67.10;;;;;;5013842;28;20026;-86
2021/09/21 11:10:28;;;;;;;3.22;1.83;;;28.20;67.00;;;;;;5012249;28;20030;-85
2021/09/21 11:12:55;;;;;;;2.30;1.40;;;28.40;66.40;;;;;;4996344;28;20042;-85
2021/09/21 11:15:29;;;;;;;3.38;1.20;;;28.60;66.10;;;;;;5014153;28;20049;-86
2021/09/21 11:18:13;;;;;;;2.95;1.80;;;28.80;65.50;;;;;;5031378;28;20139;-86
2021/09/21 11:21:07;;;;;;;2.10;1.25;;;28.90;64.80;;;;;;5032067;28;20026;-85
2021/09/21 11:23:37;;;;;;;4.35;1.48;;;29.00;64.50;;;;;;5015508;28;20121;-86
2021/09/21 11:26:19;;;;;;;2.35;1.40;;;28.80;63.90;;;;;;5018243;28;20018;-86
2021/09/21 11:28:59;;;;;;;2.40;1.33;;;28.80;64.10;;;;;;5031215;28;20104;-86
2021/09/21 11:31:26;;;;;;;2.97;1.70;;;28.70;63.90;;;;;;5029430;28;20346;-86
2021/09/21 11:33:54;;;;;;;2.38;1.50;;;28.20;63.60;;;;;;5013737;28;20423;-85
2021/09/21 11:36:22;;;;;;;3.53;1.60;;;28.00;64.00;;;;;;5023593;28;20068;-86
2021/09/21 11:38:54;;;;;;;2.67;1.40;;;28.20;64.00;;;;;;5015227;28;20098;-86
2021/09/21 11:41:21;;;;;;;2.43;1.43;;;28.30;63.70;;;;;;5015949;28;20054;-85
2021/09/21 11:44:02;;;;;;;2.30;1.42;;;28.50;63.60;;;;;;5019892;28;20033;-85
2021/09/21 11:46:47;;;;;;;3.15;1.90;;;28.80;62.80;;;;;;5020810;28;20526;-86
2021/09/21 11:49:19;;;;;;;3.10;1.58;;;28.60;61.50;;;;;;5015516;28;20037;-85
2021/09/21 11:51:52;;;;;;;1.80;1.30;;;28.60;61.90;;;;;;5015125;28;20164;-86
2021/09/21 11:54:20;;;;;;;3.05;1.67;;;28.50;62.10;;;;;;5024074;28;20029;-86
2021/09/21 11:56:48;;;;;;;2.67;1.60;;;28.30;61.80;;;;;;4997027;28;20029;-85
2021/09/21 11:59:17;;;;;;;2.05;1.30;;;28.20;61.90;;;;;;5031216;28;20036;-85
2021/09/21 12:01:52;;;;;;;3.33;1.80;;;28.20;61.60;;;;;;5033012;28;20025;-86
2021/09/21 12:04:18;;;;;;;4.45;1.67;;;28.10;60.70;;;;;;5016720;28;20029;-85
2021/09/21 12:06:52;;;;;;;2.90;1.42;;;27.90;61.40;;;;;;5016580;28;20063;-86
2021/09/21 12:09:20;;;;;;;2.05;1.50;;;28.10;61.50;;;;;;5012901;28;20030;-86
2021/09/21 12:11:46;;;;;;;2.25;1.42;;;28.10;61.30;;;;;;5014670;28;20066;-86
2021/09/21 12:14:15;;;;;;;2.80;1.77;;;28.10;61.30;;;;;;5023162;28;20100;-85
2021/09/21 12:16:40;;;;;;;2.95;1.70;;;28.10;59.80;;;;;;5029996;28;20140;-85
2021/09/21 12:19:17;;;;;;;3.55;2.13;;;27.70;60.50;;;;;;5016544;28;20129;-86
2021/09/21 12:21:45;;;;;;;2.38;1.48;;;27.40;60.30;;;;;;5013834;28;20036;-85
2021/09/21 12:24:13;;;;;;;2.53;1.55;;;27.20;60.80;;;;;;4997849;28;20034;-85
2021/09/21 12:26:40;;;;;;;2.22;1.60;;;27.20;61.00;;;;;;5026691;28;20033;-85
2021/09/21 12:29:08;;;;;;;2.00;1.42;;;27.20;60.80;;;;;;5016974;28;20116;-86
2021/09/21 12:31:35;;;;;;;3.25;1.40;;;27.20;60.60;;;;;;5017570;28;20389;-85
2021/09/21 12:34:17;;;;;;;2.70;1.60;;;26.90;60.20;;;;;;5032635;28;20105;-86
2021/09/21 12:36:48;;;;;;;2.60;1.48;;;26.50;59.90;;;;;;5032438;28;20033;-85
2021/09/21 12:39:20;;;;;;;2.20;1.50;;;26.20;61.20;;;;;;5015695;28;20022;-85
2021/09/21 12:41:49;;;;;;;2.73;1.50;;;26.00;61.50;;;;;;5020447;28;20075;-86
2021/09/21 12:44:19;;;;;;;3.83;1.77;;;25.80;62.10;;;;;;5032037;28;20026;-86
2021/09/21 12:46:54;;;;;;;2.53;1.08;;;25.80;62.60;;;;;;5015762;28;20116;-86
2021/09/21 12:49:20;;;;;;;2.80;1.77;;;25.70;63.30;;;;;;5014903;28;20037;-86
2021/09/21 12:51:55;;;;;;;3.33;1.42;;;25.40;63.00;;;;;;5013949;28;20362;-85
2021/09/21 12:54:24;;;;;;;2.13;1.58;;;25.30;63.90;;;;;;5014029;28;20104;-85
2021/09/21 12:56:54;;;;;;;2.08;1.35;;;25.10;64.30;;;;;;5003249;28;20032;-86
2021/09/21 12:59:22;;;;;;;2.17;1.60;;;25.10;64.90;;;;;;5015007;28;20048;-85
2021/09/21 13:01:53;;;;;;;2.35;1.23;;;25.20;64.50;;;;;;5013642;28;20433;-85
2021/09/21 13:04:20;;;;;;;2.67;1.60;;;25.10;64.70;;;;;;5015116;28;20480;-85
2021/09/21 13:06:52;;;;;;;2.75;1.65;;;25.10;64.70;;;;;;5014829;28;20026;-86
2021/09/21 13:09:19;;;;;;;2.22;1.70;;;24.90;65.00;;;;;;5028351;28;20025;-86